Time;durP1;ratioP1;P1;durP2;ratioP2;P2;SDS_P1;SDS_P2;PMS_P1;PMS_P2;Temp;Humidity;BMP_temperature;BMP_pressure;BME280_temperature;BME280_humidity;BME280_pressure;Samples;Min_cycle;Max_cycle;Signal;HPM_P1;HPM_P2
2023/01/30 00:00:49;;;;;;;34.17;23.57;;;;;;;;;;5091300;28;20447;-55
2023/01/30 00:03:15;;;;;;;34.20;22.07;;;;;;;;;;5091153;28;20848;-54
2023/01/30 00:05:43;;;;;;;35.57;23.43;;;;;;;;;;5091427;28;20952;-55
2023/01/30 00:08:09;;;;;;;34.07;23.13;;;;;;;;;;5090943;28;20207;-54
2023/01/30 00:10:34;;;;;;;35.00;23.00;;;;;;;;;;5090999;28;20483;-55
2023/01/30 00:13:00;;;;;;;32.30;21.83;;;;;;;;;;5091532;28;20486;-55
2023/01/30 00:15:26;;;;;;;35.33;23.57;;;;;;;;;;5091193;28;20222;-55
2023/01/30 00:17:52;;;;;;;35.40;23.73;;;;;;;;;;5090922;28;20669;-55
2023/01/30 00:20:18;;;;;;;35.33;23.43;;;;;;;;;;5091014;28;20195;-55
2023/01/30 00:22:46;;;;;;;31.40;22.43;;;;;;;;;;5091247;28;20205;-54
2023/01/30 00:25:12;;;;;;;35.23;23.10;;;;;;;;;;5091034;28;20842;-54
2023/01/30 00:27:38;;;;;;;34.97;23.23;;;;;;;;;;5091057;28;20832;-54
2023/01/30 00:30:06;;;;;;;36.27;24.47;;;;;;;;;;5090404;28;20584;-57
2023/01/30 00:32:32;;;;;;;39.20;24.23;;;;;;;;;;5090900;28;20203;-54
2023/01/30 00:34:58;;;;;;;38.53;25.37;;;;;;;;;;5091057;28;20441;-54
2023/01/30 00:37:24;;;;;;;34.20;24.57;;;;;;;;;;5091940;28;20910;-53
2023/01/30 00:39:51;;;;;;;42.57;24.97;;;;;;;;;;5094897;28;20475;-52
2023/01/30 00:47:48;;;;;;;40.37;27.20;;;;;;;;;;5094568;28;20551;-52
2023/01/30 00:50:14;;;;;;;40.57;25.73;;;;;;;;;;5094499;28;20464;-52
2023/01/30 00:52:40;;;;;;;40.80;26.83;;;;;;;;;;5094559;28;20429;-52
2023/01/30 00:55:08;;;;;;;41.73;26.40;;;;;;;;;;5094498;28;20464;-55
2023/01/30 00:57:34;;;;;;;43.67;28.03;;;;;;;;;;5094359;28;20207;-54
2023/01/30 01:00:00;;;;;;;45.77;27.27;;;;;;;;;;5094454;28;20452;-55
2023/01/30 01:02:26;;;;;;;44.00;27.43;;;;;;;;;;5094392;28;20214;-56
2023/01/30 01:04:52;;;;;;;42.23;26.77;;;;;;;;;;5094354;28;20802;-55
2023/01/30 01:07:18;;;;;;;40.87;26.40;;;;;;;;;;5094213;28;20444;-55
2023/01/30 01:09:44;;;;;;;41.30;26.47;;;;;;;;;;5094432;28;20202;-56
2023/01/30 01:12:11;;;;;;;40.40;26.70;;;;;;;;;;5094137;28;20712;-55
2023/01/30 01:14:37;;;;;;;43.67;26.87;;;;;;;;;;5093953;28;20574;-55
2023/01/30 01:17:03;;;;;;;46.70;27.00;;;;;;;;;;5094141;28;20848;-55
2023/01/30 01:19:29;;;;;;;43.27;27.93;;;;;;;;;;5094045;28;20469;-55
2023/01/30 01:21:55;;;;;;;45.60;27.30;;;;;;;;;;5094043;28;20191;-55
2023/01/30 01:24:21;;;;;;;41.87;27.30;;;;;;;;;;5093818;28;20795;-55
2023/01/30 01:26:47;;;;;;;41.80;26.53;;;;;;;;;;5093986;28;20194;-55
2023/01/30 01:29:15;;;;;;;42.50;26.03;;;;;;;;;;5093668;28;20303;-56
2023/01/30 01:31:41;;;;;;;39.97;24.77;;;;;;;;;;5093804;28;20258;-56
2023/01/30 01:34:07;;;;;;;41.53;25.67;;;;;;;;;;5093640;28;20790;-55
2023/01/30 01:36:33;;;;;;;39.23;24.30;;;;;;;;;;5093751;28;20444;-55
2023/01/30 01:38:59;;;;;;;40.27;24.57;;;;;;;;;;5093968;28;20206;-55
2023/01/30 01:41:25;;;;;;;40.93;24.73;;;;;;;;;;5093435;28;20211;-55
2023/01/30 01:44:02;;;;;;;39.40;24.47;;;;;;;;;;5093555;28;20274;-55
2023/01/30 01:46:30;;;;;;;38.37;25.40;;;;;;;;;;5093519;28;20463;-55
2023/01/30 01:48:58;;;;;;;37.63;25.27;;;;;;;;;;5093505;28;20441;-56
2023/01/30 01:51:26;;;;;;;37.87;25.87;;;;;;;;;;5093205;28;20492;-55
2023/01/30 01:53:55;;;;;;;38.20;24.17;;;;;;;;;;5093355;28;20464;-56
2023/01/30 01:56:21;;;;;;;38.43;24.17;;;;;;;;;;5093409;28;20517;-55
2023/01/30 01:58:51;;;;;;;38.90;25.03;;;;;;;;;;5093255;28;20490;-54
2023/01/30 02:01:17;;;;;;;37.97;26.03;;;;;;;;;;5092966;28;20487;-54
2023/01/30 02:03:46;;;;;;;36.83;24.47;;;;;;;;;;5093211;28;20443;-54
2023/01/30 02:06:14;;;;;;;35.20;24.20;;;;;;;;;;5093178;28;20202;-54
2023/01/30 02:08:43;;;;;;;35.87;24.47;;;;;;;;;;5093173;28;20430;-54
2023/01/30 02:11:12;;;;;;;35.13;23.73;;;;;;;;;;5092844;28;20568;-54
2023/01/30 02:13:38;;;;;;;35.00;23.13;;;;;;;;;;5093002;28;20433;-54
2023/01/30 02:16:05;;;;;;;40.07;24.77;;;;;;;;;;5092871;28;20466;-54
2023/01/30 02:18:32;;;;;;;34.87;24.70;;;;;;;;;;5092889;28;20433;-55
2023/01/30 02:21:05;;;;;;;32.40;21.93;;;;;;;;;;5093309;28;20465;-54
2023/01/30 02:23:52;;;;;;;35.23;23.40;;;;;;;;;;5092761;28;20466;-55
2023/01/30 02:26:34;;;;;;;34.53;23.20;;;;;;;;;;5066596;28;20531;-55
2023/01/30 02:29:14;;;;;;;33.47;22.37;;;;;;;;;;5092638;28;20429;-55
2023/01/30 02:31:46;;;;;;;31.33;21.37;;;;;;;;;;5089940;28;20496;-55
2023/01/30 02:34:24;;;;;;;35.47;22.03;;;;;;;;;;5092712;28;20469;-55
2023/01/30 02:36:54;;;;;;;33.40;21.50;;;;;;;;;;5092574;28;20444;-55
2023/01/30 02:39:24;;;;;;;31.80;21.87;;;;;;;;;;5092379;28;20444;-55
2023/01/30 02:41:53;;;;;;;34.23;22.83;;;;;;;;;;5092404;28;20457;-55
2023/01/30 02:44:25;;;;;;;34.30;22.13;;;;;;;;;;5092277;28;20946;-55
2023/01/30 02:46:53;;;;;;;29.57;20.70;;;;;;;;;;5092485;28;20798;-55
2023/01/30 02:49:22;;;;;;;34.63;23.23;;;;;;;;;;5092241;28;20455;-55
2023/01/30 02:51:49;;;;;;;28.43;21.47;;;;;;;;;;5092241;28;20843;-54
2023/01/30 02:54:15;;;;;;;33.77;21.50;;;;;;;;;;5092327;28;20506;-54
2023/01/30 02:56:45;;;;;;;31.27;21.47;;;;;;;;;;5092148;28;20494;-55
2023/01/30 02:59:12;;;;;;;32.10;21.63;;;;;;;;;;5092209;28;20444;-54
2023/01/30 03:01:48;;;;;;;29.27;20.33;;;;;;;;;;5091714;28;20552;-54
2023/01/30 03:04:26;;;;;;;38.00;24.13;;;;;;;;;;5092230;28;20493;-54
2023/01/30 03:06:57;;;;;;;33.00;22.47;;;;;;;;;;5092085;28;20445;-55
2023/01/30 03:09:27;;;;;;;36.63;22.90;;;;;;;;;;5091918;28;20444;-54
2023/01/30 03:12:00;;;;;;;37.90;23.23;;;;;;;;;;5092009;28;20506;-54
2023/01/30 03:14:28;;;;;;;38.77;22.90;;;;;;;;;;5091925;28;20478;-54
2023/01/30 03:16:56;;;;;;;39.93;24.07;;;;;;;;;;5091853;28;20441;-54
2023/01/30 03:19:23;;;;;;;35.27;22.20;;;;;;;;;;5091704;28;20447;-54
2023/01/30 03:21:49;;;;;;;34.03;21.83;;;;;;;;;;5091765;28;20456;-54
2023/01/30 03:24:16;;;;;;;34.27;23.03;;;;;;;;;;5091798;28;20516;-53
2023/01/30 03:26:46;;;;;;;31.10;20.83;;;;;;;;;;5091735;28;20198;-53
2023/01/30 03:29:12;;;;;;;32.33;21.83;;;;;;;;;;5091624;28;20516;-53
2023/01/30 03:31:38;;;;;;;32.37;21.37;;;;;;;;;;5091500;28;20507;-53
2023/01/30 03:34:04;;;;;;;35.47;22.80;;;;;;;;;;5091684;28;20639;-53
2023/01/30 03:36:31;;;;;;;32.20;19.97;;;;;;;;;;5091648;28;20202;-53
2023/01/30 03:38:58;;;;;;;34.20;21.10;;;;;;;;;;5091784;28;20516;-52
2023/01/30 03:41:24;;;;;;;32.73;22.00;;;;;;;;;;5091425;28;21046;-53
2023/01/30 03:43:50;;;;;;;34.33;21.87;;;;;;;;;;5091515;28;20720;-53
2023/01/30 03:46:16;;;;;;;33.23;23.23;;;;;;;;;;5091419;28;20944;-53
2023/01/30 03:48:42;;;;;;;32.73;21.40;;;;;;;;;;5091692;28;20433;-53
2023/01/30 03:51:08;;;;;;;34.33;21.30;;;;;;;;;;5091426;28;20776;-53
2023/01/30 03:53:35;;;;;;;36.00;23.00;;;;;;;;;;5091405;28;20252;-53
2023/01/30 03:56:01;;;;;;;35.90;22.83;;;;;;;;;;5091521;28;20217;-53
2023/01/30 03:58:27;;;;;;;29.80;21.07;;;;;;;;;;5091439;28;20441;-53
2023/01/30 04:00:55;;;;;;;32.40;21.53;;;;;;;;;;5091432;28;20248;-53
2023/01/30 04:03:21;;;;;;;32.53;21.30;;;;;;;;;;5091264;28;20195;-53
2023/01/30 04:05:47;;;;;;;33.23;22.30;;;;;;;;;;5091475;28;20452;-53
2023/01/30 04:08:12;;;;;;;28.03;19.70;;;;;;;;;;5091485;28;20661;-53
2023/01/30 04:10:40;;;;;;;30.43;20.60;;;;;;;;;;5091382;28;20233;-53
2023/01/30 04:13:06;;;;;;;30.40;20.20;;;;;;;;;;5093633;28;20244;-53
2023/01/30 04:15:32;;;;;;;29.87;20.87;;;;;;;;;;5095239;28;20892;-53
2023/01/30 04:17:58;;;;;;;30.50;20.30;;;;;;;;;;5095337;28;20919;-53
2023/01/30 04:20:24;;;;;;;28.83;20.10;;;;;;;;;;5095126;28;20207;-53
2023/01/30 04:22:50;;;;;;;27.43;18.50;;;;;;;;;;5095167;28;20644;-53
2023/01/30 04:25:16;;;;;;;26.03;18.43;;;;;;;;;;5095098;28;20437;-53
2023/01/30 04:27:43;;;;;;;27.57;19.20;;;;;;;;;;5095098;28;20202;-53
2023/01/30 04:30:10;;;;;;;24.37;17.70;;;;;;;;;;5094936;28;20647;-54
2023/01/30 04:32:36;;;;;;;23.87;17.47;;;;;;;;;;5094821;28;20567;-53
2023/01/30 04:35:02;;;;;;;23.67;16.87;;;;;;;;;;5094913;28;20471;-53
2023/01/30 04:37:28;;;;;;;21.30;16.03;;;;;;;;;;5094901;28;20199;-54
2023/01/30 04:39:54;;;;;;;21.47;15.23;;;;;;;;;;5095134;28;20431;-54
2023/01/30 04:42:20;;;;;;;19.30;15.43;;;;;;;;;;5094703;28;20199;-54
2023/01/30 04:44:47;;;;;;;18.53;13.80;;;;;;;;;;5094835;28;20199;-54
2023/01/30 04:47:13;;;;;;;17.43;12.83;;;;;;;;;;5094783;28;20274;-54
2023/01/30 04:49:39;;;;;;;17.67;13.40;;;;;;;;;;5094631;28;20520;-53
2023/01/30 04:52:05;;;;;;;17.13;13.20;;;;;;;;;;5094462;28;20555;-53
2023/01/30 04:54:31;;;;;;;15.40;12.50;;;;;;;;;;5094501;28;20576;-53
2023/01/30 04:56:57;;;;;;;14.53;11.90;;;;;;;;;;5094631;28;21158;-53
2023/01/30 04:59:23;;;;;;;14.97;11.17;;;;;;;;;;5094340;28;20469;-53
2023/01/30 05:01:51;;;;;;;13.40;11.33;;;;;;;;;;5094306;28;20452;-54
2023/01/30 05:04:17;;;;;;;12.73;11.27;;;;;;;;;;5094379;28;20202;-53
2023/01/30 05:06:43;;;;;;;13.90;12.00;;;;;;;;;;5094494;28;20441;-53
2023/01/30 05:09:09;;;;;;;11.60;9.90;;;;;;;;;;5094105;28;20191;-54
2023/01/30 05:11:35;;;;;;;11.63;9.53;;;;;;;;;;5093953;28;20215;-53
2023/01/30 05:14:01;;;;;;;10.97;8.93;;;;;;;;;;5094197;28;21010;-54
2023/01/30 05:16:27;;;;;;;12.43;10.20;;;;;;;;;;5094367;28;20525;-53
2023/01/30 05:18:54;;;;;;;13.67;11.33;;;;;;;;;;5094132;28;20259;-53
2023/01/30 05:21:21;;;;;;;12.83;10.20;;;;;;;;;;5093899;28;20535;-54
2023/01/30 05:23:47;;;;;;;11.97;10.37;;;;;;;;;;5093682;28;20490;-54
2023/01/30 05:26:13;;;;;;;11.10;9.63;;;;;;;;;;5094032;28;20464;-54
2023/01/30 05:28:40;;;;;;;11.70;9.70;;;;;;;;;;5094068;28;20433;-54
2023/01/30 05:31:07;;;;;;;11.87;9.40;;;;;;;;;;5093539;28;20804;-55
2023/01/30 05:33:33;;;;;;;11.80;9.60;;;;;;;;;;5093683;28;20440;-54
2023/01/30 05:36:00;;;;;;;11.53;9.40;;;;;;;;;;5094068;28;20434;-54
2023/01/30 05:38:27;;;;;;;10.80;9.67;;;;;;;;;;5093696;28;20441;-54
2023/01/30 05:41:00;;;;;;;10.27;8.97;;;;;;;;;;5093598;28;20496;-55
2023/01/30 05:43:26;;;;;;;10.90;9.70;;;;;;;;;;5093527;28;20195;-54
2023/01/30 05:45:53;;;;;;;12.43;8.90;;;;;;;;;;5093526;28;20422;-54
2023/01/30 05:48:19;;;;;;;11.03;8.80;;;;;;;;;;5093468;28;20429;-55
2023/01/30 05:50:45;;;;;;;9.67;8.60;;;;;;;;;;5093587;28;20617;-55
2023/01/30 05:53:12;;;;;;;10.50;8.13;;;;;;;;;;5093514;28;20304;-54
2023/01/30 05:55:38;;;;;;;11.23;7.87;;;;;;;;;;5093252;28;20437;-55
2023/01/30 05:58:04;;;;;;;10.53;8.00;;;;;;;;;;5093299;28;20546;-55
2023/01/30 06:00:30;;;;;;;8.20;7.40;;;;;;;;;;5093094;28;20289;-55
2023/01/30 06:02:56;;;;;;;13.30;6.80;;;;;;;;;;5093346;28;20256;-55
2023/01/30 06:05:22;;;;;;;10.30;6.77;;;;;;;;;;5093086;28;20230;-55
2023/01/30 06:07:48;;;;;;;9.97;7.43;;;;;;;;;;5093028;28;20210;-55
2023/01/30 06:10:16;;;;;;;10.53;5.70;;;;;;;;;;5093238;28;20199;-55
2023/01/30 06:12:42;;;;;;;13.40;5.10;;;;;;;;;;5093246;28;20312;-56
2023/01/30 06:15:08;;;;;;;8.83;4.00;;;;;;;;;;5093090;28;20437;-55
2023/01/30 06:17:34;;;;;;;15.07;5.20;;;;;;;;;;5092763;28;20194;-55
2023/01/30 06:20:00;;;;;;;12.40;4.07;;;;;;;;;;5092869;28;20290;-55
2023/01/30 06:22:26;;;;;;;12.37;3.90;;;;;;;;;;5092787;28;20204;-55
2023/01/30 06:24:52;;;;;;;7.63;3.53;;;;;;;;;;5092796;28;20207;-55
2023/01/30 06:27:20;;;;;;;10.90;3.53;;;;;;;;;;5092641;28;20202;-54
2023/01/30 06:29:46;;;;;;;11.33;3.10;;;;;;;;;;5092539;28;20242;-54
2023/01/30 06:32:12;;;;;;;9.77;3.27;;;;;;;;;;5092427;28;20483;-55
2023/01/30 06:34:38;;;;;;;15.13;3.47;;;;;;;;;;5091799;28;20683;-55
2023/01/30 06:37:04;;;;;;;11.20;3.27;;;;;;;;;;5092531;28;20198;-55
2023/01/30 06:39:30;;;;;;;13.70;3.03;;;;;;;;;;5092599;28;20198;-55
2023/01/30 06:41:56;;;;;;;13.60;3.43;;;;;;;;;;5092534;28;20242;-55
2023/01/30 06:44:23;;;;;;;11.10;3.67;;;;;;;;;;5092347;28;20565;-55
2023/01/30 06:46:49;;;;;;;15.50;3.77;;;;;;;;;;5092335;28;20467;-55
2023/01/30 06:49:15;;;;;;;12.73;3.27;;;;;;;;;;5092438;28;20206;-54
2023/01/30 06:51:41;;;;;;;14.50;3.53;;;;;;;;;;5092221;28;20296;-55
2023/01/30 06:54:07;;;;;;;15.07;3.57;;;;;;;;;;5092169;28;20596;-54
2023/01/30 06:56:33;;;;;;;11.93;3.93;;;;;;;;;;5092061;28;20190;-55
2023/01/30 06:58:59;;;;;;;10.97;3.23;;;;;;;;;;5092382;28;20207;-55
2023/01/30 07:01:26;;;;;;;10.47;3.23;;;;;;;;;;5092223;28;20274;-55
2023/01/30 07:03:52;;;;;;;12.20;3.50;;;;;;;;;;5092229;28;20230;-55
2023/01/30 07:06:18;;;;;;;11.80;3.17;;;;;;;;;;5092044;28;20205;-55
2023/01/30 07:08:44;;;;;;;12.13;4.17;;;;;;;;;;5092231;28;20428;-55
2023/01/30 07:11:10;;;;;;;12.07;3.73;;;;;;;;;;5091966;28;20484;-55
2023/01/30 07:13:36;;;;;;;18.13;3.87;;;;;;;;;;5091845;28;20532;-55
2023/01/30 07:16:02;;;;;;;13.13;4.00;;;;;;;;;;5091801;28;20278;-55
2023/01/30 07:18:30;;;;;;;10.23;3.23;;;;;;;;;;5091959;28;20566;-55
2023/01/30 07:20:56;;;;;;;12.97;3.30;;;;;;;;;;5092154;28;20441;-56
2023/01/30 07:23:22;;;;;;;15.63;3.97;;;;;;;;;;5091673;28;20402;-56
2023/01/30 07:25:48;;;;;;;15.17;3.67;;;;;;;;;;5091829;28;20202;-57
2023/01/30 07:28:14;;;;;;;14.67;4.27;;;;;;;;;;5092149;28;20252;-56
2023/01/30 07:30:40;;;;;;;10.00;3.50;;;;;;;;;;5091328;28;20472;-54
2023/01/30 07:33:06;;;;;;;14.33;3.67;;;;;;;;;;5091805;28;20201;-55
2023/01/30 07:35:34;;;;;;;8.93;2.87;;;;;;;;;;5091443;28;20191;-56
2023/01/30 07:38:00;;;;;;;10.40;3.43;;;;;;;;;;5091646;28;20653;-55
2023/01/30 07:40:26;;;;;;;8.47;2.93;;;;;;;;;;5091585;28;20451;-55
2023/01/30 07:42:56;;;;;;;14.37;3.50;;;;;;;;;;5091677;28;20281;-55
2023/01/30 07:45:22;;;;;;;11.83;3.73;;;;;;;;;;5091561;28;20194;-55
2023/01/30 07:47:48;;;;;;;14.73;3.60;;;;;;;;;;5095023;28;20448;-56
2023/01/30 07:50:14;;;;;;;18.30;4.00;;;;;;;;;;5095959;28;20198;-55
2023/01/30 07:52:41;;;;;;;10.33;3.40;;;;;;;;;;5095580;28;20299;-55
2023/01/30 07:55:07;;;;;;;13.50;3.13;;;;;;;;;;5095624;28;20205;-55
2023/01/30 07:57:33;;;;;;;12.73;4.23;;;;;;;;;;5095501;28;20498;-56
2023/01/30 07:59:59;;;;;;;15.13;3.10;;;;;;;;;;5095634;28;20202;-55
2023/01/30 08:02:25;;;;;;;10.17;3.13;;;;;;;;;;5095626;28;20665;-55
2023/01/30 08:04:51;;;;;;;12.23;3.10;;;;;;;;;;5095425;28;20229;-55
2023/01/30 08:07:18;;;;;;;13.93;3.10;;;;;;;;;;5095333;28;20597;-55
2023/01/30 08:09:45;;;;;;;14.83;3.97;;;;;;;;;;5095494;28;20195;-55
2023/01/30 08:12:11;;;;;;;17.27;4.47;;;;;;;;;;5095334;28;20253;-55
2023/01/30 08:14:37;;;;;;;13.73;3.30;;;;;;;;;;5095225;28;20199;-55
2023/01/30 08:17:03;;;;;;;13.43;3.33;;;;;;;;;;5095271;28;20543;-55
2023/01/30 08:19:29;;;;;;;10.73;3.07;;;;;;;;;;5095205;28;20292;-55
2023/01/30 08:21:55;;;;;;;8.63;3.13;;;;;;;;;;5095305;28;20252;-55
2023/01/30 08:24:21;;;;;;;14.40;3.43;;;;;;;;;;5095082;28;20241;-55
2023/01/30 08:26:48;;;;;;;11.70;3.40;;;;;;;;;;5094975;28;20195;-55
2023/01/30 08:29:14;;;;;;;14.73;3.57;;;;;;;;;;5094864;28;20239;-54
2023/01/30 08:31:40;;;;;;;13.27;3.67;;;;;;;;;;5094772;28;20257;-55
2023/01/30 08:34:06;;;;;;;13.63;3.60;;;;;;;;;;5094913;28;20307;-55
2023/01/30 08:36:32;;;;;;;16.07;3.63;;;;;;;;;;5094721;28;20187;-55
2023/01/30 08:38:59;;;;;;;13.63;3.87;;;;;;;;;;5094983;28;20210;-56
2023/01/30 08:41:27;;;;;;;15.70;3.47;;;;;;;;;;5094755;28;20211;-55
2023/01/30 08:43:54;;;;;;;17.37;3.53;;;;;;;;;;5094646;28;20535;-55
2023/01/30 08:46:20;;;;;;;11.63;3.77;;;;;;;;;;5094634;28;20529;-55
2023/01/30 08:48:47;;;;;;;15.57;3.47;;;;;;;;;;5094553;28;20744;-55
2023/01/30 08:51:13;;;;;;;12.13;3.87;;;;;;;;;;5094573;28;20480;-56
2023/01/30 08:53:39;;;;;;;11.57;3.23;;;;;;;;;;5094352;28;20627;-55
2023/01/30 08:56:05;;;;;;;17.50;4.10;;;;;;;;;;5093052;28;20244;-56
2023/01/30 08:58:31;;;;;;;15.50;3.77;;;;;;;;;;5093800;28;20296;-56
2023/01/30 09:00:59;;;;;;;8.37;3.20;;;;;;;;;;5094478;28;20203;-55
2023/01/30 09:03:25;;;;;;;11.17;3.33;;;;;;;;;;5094258;28;20222;-55
2023/01/30 09:05:53;;;;;;;12.47;3.50;;;;;;;;;;5094331;28;20448;-55
2023/01/30 09:08:19;;;;;;;12.73;3.53;;;;;;;;;;5094179;28;20228;-57
2023/01/30 09:10:45;;;;;;;14.67;3.50;;;;;;;;;;5094198;28;20203;-56
2023/01/30 09:13:11;;;;;;;14.20;3.93;;;;;;;;;;5094171;28;20235;-54
2023/01/30 09:15:37;;;;;;;14.53;3.50;;;;;;;;;;5093893;28;20221;-50
2023/01/30 09:18:05;;;;;;;10.90;3.40;;;;;;;;;;5094066;28;20731;-50
2023/01/30 09:20:31;;;;;;;14.03;3.83;;;;;;;;;;5094040;28;20286;-51
2023/01/30 09:22:57;;;;;;;12.53;3.83;;;;;;;;;;5094052;28;20286;-51
2023/01/30 09:25:23;;;;;;;17.03;4.50;;;;;;;;;;5093978;28;20294;-51
2023/01/30 09:27:49;;;;;;;15.23;3.50;;;;;;;;;;5093870;28;20206;-51
2023/01/30 09:30:15;;;;;;;9.93;2.70;;;;;;;;;;5093720;28;20235;-52
2023/01/30 09:32:41;;;;;;;14.57;4.20;;;;;;;;;;5093603;28;20230;-52
2023/01/30 09:35:09;;;;;;;10.43;3.40;;;;;;;;;;5093813;28;20245;-53
2023/01/30 09:37:34;;;;;;;15.13;3.93;;;;;;;;;;5093677;28;20440;-53
2023/01/30 09:40:00;;;;;;;10.73;3.03;;;;;;;;;;5093760;28;20191;-52
2023/01/30 09:42:53;;;;;;;12.30;3.40;;;;;;;;;;5093650;28;20597;-54
2023/01/30 09:45:26;;;;;;;14.40;3.43;;;;;;;;;;5093551;28;20301;-52
2023/01/30 09:47:55;;;;;;;13.97;3.00;;;;;;;;;;5093514;28;20202;-54
2023/01/30 09:50:29;;;;;;;10.40;3.10;;;;;;;;;;5093586;28;20233;-54
2023/01/30 09:52:56;;;;;;;12.30;2.83;;;;;;;;;;5093341;28;20322;-54
2023/01/30 09:55:24;;;;;;;12.90;3.10;;;;;;;;;;5092790;28;20528;-54
2023/01/30 09:57:50;;;;;;;12.17;3.07;;;;;;;;;;5092548;28;20191;-53
2023/01/30 10:00:20;;;;;;;14.60;3.33;;;;;;;;;;5092665;28;20248;-53
2023/01/30 10:02:51;;;;;;;19.73;4.30;;;;;;;;;;5093348;28;20202;-53
2023/01/30 10:05:17;;;;;;;14.47;3.37;;;;;;;;;;5093330;28;20285;-53
2023/01/30 10:07:54;;;;;;;16.47;3.77;;;;;;;;;;5093146;28;20203;-53
2023/01/30 10:10:24;;;;;;;9.63;3.20;;;;;;;;;;5092007;28;20202;-52
2023/01/30 10:12:54;;;;;;;14.07;3.43;;;;;;;;;;5092986;28;20223;-54
2023/01/30 10:15:28;;;;;;;13.03;3.10;;;;;;;;;;5092795;28;20740;-54
2023/01/30 10:18:12;;;;;;;12.33;3.97;;;;;;;;;;5093054;28;20194;-54
2023/01/30 10:20:42;;;;;;;12.37;3.67;;;;;;;;;;5092787;28;20195;-54
2023/01/30 10:23:17;;;;;;;14.33;3.50;;;;;;;;;;5092963;28;20219;-55
2023/01/30 10:25:45;;;;;;;17.23;3.90;;;;;;;;;;5092914;28;20206;-54
2023/01/30 10:28:15;;;;;;;17.90;4.10;;;;;;;;;;5092996;28;20199;-54
2023/01/30 10:30:43;;;;;;;15.67;3.77;;;;;;;;;;5092486;28;20626;-54
2023/01/30 10:33:15;;;;;;;13.33;3.80;;;;;;;;;;5092535;28;20719;-54
2023/01/30 10:35:42;;;;;;;13.47;3.57;;;;;;;;;;5092744;28;20535;-54
2023/01/30 10:38:15;;;;;;;11.93;3.30;;;;;;;;;;5092555;28;20205;-53
2023/01/30 10:40:43;;;;;;;11.10;3.37;;;;;;;;;;5092531;28;20207;-53
2023/01/30 10:43:14;;;;;;;8.40;3.07;;;;;;;;;;5090606;28;20213;-54
2023/01/30 10:45:45;;;;;;;12.00;3.20;;;;;;;;;;5091297;28;20195;-54
2023/01/30 10:48:20;;;;;;;15.90;3.37;;;;;;;;;;5091857;28;20202;-53
2023/01/30 10:50:49;;;;;;;13.20;3.00;;;;;;;;;;5091686;28;20202;-55
2023/01/30 10:53:17;;;;;;;12.17;3.47;;;;;;;;;;5091814;28;20195;-54
2023/01/30 10:55:47;;;;;;;9.07;2.73;;;;;;;;;;5091621;28;20199;-54
2023/01/30 10:58:16;;;;;;;5.37;2.47;;;;;;;;;;5090334;28;20199;-54
2023/01/30 11:00:45;;;;;;;6.63;2.53;;;;;;;;;;5091994;28;20599;-55
2023/01/30 11:03:21;;;;;;;7.13;2.40;;;;;;;;;;5091886;28;20647;-54
2023/01/30 11:05:49;;;;;;;4.93;2.13;;;;;;;;;;5091831;28;20210;-53
2023/01/30 11:08:18;;;;;;;6.07;2.57;;;;;;;;;;5092023;28;20190;-53
2023/01/30 11:10:45;;;;;;;7.80;2.63;;;;;;;;;;5091822;28;20191;-54
2023/01/30 11:13:14;;;;;;;9.57;2.83;;;;;;;;;;5091894;28;20226;-54
2023/01/30 11:15:40;;;;;;;8.00;2.80;;;;;;;;;;5091671;28;20217;-54
2023/01/30 11:18:06;;;;;;;7.07;3.10;;;;;;;;;;5091757;28;20197;-54
2023/01/30 11:20:38;;;;;;;11.33;3.10;;;;;;;;;;5091388;28;20597;-54
2023/01/30 11:23:05;;;;;;;11.30;3.20;;;;;;;;;;5091690;28;20199;-54
2023/01/30 11:25:31;;;;;;;12.07;3.43;;;;;;;;;;5091562;28;20771;-54
2023/01/30 11:28:00;;;;;;;10.67;3.43;;;;;;;;;;5092087;28;20234;-54
2023/01/30 11:30:27;;;;;;;15.07;4.33;;;;;;;;;;5091347;28;20264;-55
2023/01/30 11:33:04;;;;;;;13.27;3.50;;;;;;;;;;5091437;28;20231;-55
2023/01/30 11:35:31;;;;;;;15.87;3.77;;;;;;;;;;5091457;28;20621;-55
2023/01/30 11:38:10;;;;;;;12.10;3.17;;;;;;;;;;5091602;28;20672;-54
2023/01/30 11:40:37;;;;;;;13.47;3.37;;;;;;;;;;5091336;28;20280;-54
2023/01/30 11:43:06;;;;;;;11.37;3.13;;;;;;;;;;5091484;28;20218;-54
2023/01/30 11:45:36;;;;;;;11.33;3.23;;;;;;;;;;5091017;28;20210;-53
2023/01/30 11:48:04;;;;;;;12.73;3.53;;;;;;;;;;5091507;28;20203;-54
2023/01/30 11:50:32;;;;;;;11.40;3.10;;;;;;;;;;5091549;28;20199;-53
2023/01/30 11:53:01;;;;;;;11.30;3.20;;;;;;;;;;5091415;28;20246;-53
2023/01/30 11:55:27;;;;;;;10.50;2.50;;;;;;;;;;5091409;28;20433;-53
2023/01/30 11:57:57;;;;;;;7.93;2.70;;;;;;;;;;5089251;28;20219;-53
2023/01/30 12:00:28;;;;;;;10.47;2.90;;;;;;;;;;5087882;28;20198;-52
2023/01/30 12:02:56;;;;;;;9.67;3.10;;;;;;;;;;5091565;28;20486;-54
2023/01/30 12:05:25;;;;;;;14.43;2.83;;;;;;;;;;5091635;28;20668;-54
2023/01/30 12:07:51;;;;;;;8.30;2.80;;;;;;;;;;5091711;28;20202;-55
2023/01/30 12:10:25;;;;;;;6.00;2.27;;;;;;;;;;5091614;28;20461;-54
2023/01/30 12:12:52;;;;;;;12.07;3.20;;;;;;;;;;5091388;28;20246;-53
2023/01/30 12:15:21;;;;;;;10.63;2.90;;;;;;;;;;5091440;28;20451;-52
2023/01/30 12:17:52;;;;;;;8.40;2.70;;;;;;;;;;5091500;28;20199;-53
2023/01/30 12:20:23;;;;;;;8.50;3.10;;;;;;;;;;5091638;28;20457;-54
2023/01/30 12:22:55;;;;;;;10.20;2.97;;;;;;;;;;5091396;28;20437;-54
2023/01/30 12:25:22;;;;;;;8.70;3.03;;;;;;;;;;5091592;28;20531;-54
2023/01/30 12:27:53;;;;;;;6.83;2.57;;;;;;;;;;5091356;28;20619;-53
2023/01/30 12:30:22;;;;;;;10.90;2.80;;;;;;;;;;5091351;28;20264;-54
2023/01/30 12:32:49;;;;;;;11.30;2.60;;;;;;;;;;5091378;28;20231;-54
2023/01/30 12:35:16;;;;;;;7.63;2.63;;;;;;;;;;5095308;28;20230;-54
2023/01/30 12:37:51;;;;;;;8.50;2.33;;;;;;;;;;5095167;28;20191;-54
2023/01/30 12:40:24;;;;;;;9.13;2.93;;;;;;;;;;5095127;28;20256;-54
2023/01/30 12:42:59;;;;;;;7.80;2.40;;;;;;;;;;5094984;28;20256;-54
2023/01/30 12:45:26;;;;;;;9.20;2.70;;;;;;;;;;5094982;28;20195;-54
2023/01/30 12:48:02;;;;;;;6.50;2.80;;;;;;;;;;5094878;28;20191;-54
2023/01/30 12:50:33;;;;;;;9.50;2.53;;;;;;;;;;5095020;28;20203;-54
2023/01/30 12:53:05;;;;;;;8.83;2.80;;;;;;;;;;5095001;28;20223;-54
2023/01/30 12:55:36;;;;;;;9.77;2.70;;;;;;;;;;5094750;28;20675;-54
2023/01/30 12:58:06;;;;;;;10.00;3.20;;;;;;;;;;5094876;28;20217;-54
2023/01/30 13:00:43;;;;;;;9.20;3.00;;;;;;;;;;5094646;28;20568;-54
2023/01/30 13:03:18;;;;;;;9.90;3.00;;;;;;;;;;5094646;28;20645;-54
2023/01/30 13:05:48;;;;;;;12.00;3.53;;;;;;;;;;5094626;28;20289;-54
2023/01/30 13:08:21;;;;;;;10.40;3.20;;;;;;;;;;5094661;28;20730;-54
2023/01/30 13:10:49;;;;;;;8.50;2.60;;;;;;;;;;5094416;28;20198;-54
2023/01/30 13:13:17;;;;;;;10.23;3.87;;;;;;;;;;5094540;28;20227;-53
2023/01/30 13:15:46;;;;;;;13.80;3.20;;;;;;;;;;5094345;28;20236;-53
2023/01/30 13:18:15;;;;;;;12.73;3.13;;;;;;;;;;5094437;28;20199;-54
2023/01/30 13:20:47;;;;;;;12.20;3.43;;;;;;;;;;5094332;28;20290;-54
2023/01/30 13:23:17;;;;;;;9.37;3.10;;;;;;;;;;5094467;28;20199;-55
2023/01/30 13:25:47;;;;;;;11.40;3.10;;;;;;;;;;5094155;28;20191;-54
2023/01/30 13:28:14;;;;;;;14.23;3.20;;;;;;;;;;5086495;28;20627;-53
2023/01/30 13:30:41;;;;;;;10.00;3.00;;;;;;;;;;5093621;28;20602;-53
2023/01/30 13:33:10;;;;;;;11.27;2.70;;;;;;;;;;5093858;28;20234;-53
2023/01/30 13:35:41;;;;;;;10.53;2.93;;;;;;;;;;5093707;28;20195;-54
2023/01/30 13:38:09;;;;;;;10.33;2.83;;;;;;;;;;5093804;28;20202;-54
2023/01/30 13:40:38;;;;;;;16.60;3.90;;;;;;;;;;5093410;28;20219;-54
2023/01/30 13:43:08;;;;;;;8.20;2.50;;;;;;;;;;5091655;28;20676;-51
2023/01/30 13:45:36;;;;;;;7.00;2.80;;;;;;;;;;5093221;28;20217;-51
2023/01/30 13:48:10;;;;;;;7.90;2.87;;;;;;;;;;5093680;28;20203;-52
2023/01/30 13:50:45;;;;;;;7.90;2.93;;;;;;;;;;5093515;28;20227;-51
2023/01/30 13:53:15;;;;;;;9.00;2.77;;;;;;;;;;5093746;28;20222;-51
2023/01/30 13:55:46;;;;;;;13.60;3.63;;;;;;;;;;5093684;28;20290;-51
2023/01/30 13:58:17;;;;;;;6.50;2.70;;;;;;;;;;5093682;28;20209;-52
2023/01/30 14:00:51;;;;;;;13.23;3.10;;;;;;;;;;5093536;28;20201;-52
2023/01/30 14:03:24;;;;;;;6.03;2.23;;;;;;;;;;5093331;28;20195;-52
2023/01/30 14:06:00;;;;;;;12.83;2.90;;;;;;;;;;5093151;28;20242;-52
2023/01/30 14:08:27;;;;;;;8.10;3.00;;;;;;;;;;5093309;28;20221;-52
2023/01/30 14:10:54;;;;;;;12.83;3.83;;;;;;;;;;5092630;28;20203;-52
2023/01/30 14:13:21;;;;;;;10.33;2.83;;;;;;;;;;5092577;28;20473;-51
2023/01/30 14:15:52;;;;;;;11.97;3.20;;;;;;;;;;5092065;28;20199;-52
2023/01/30 14:18:20;;;;;;;9.73;3.03;;;;;;;;;;5092652;28;20206;-52
2023/01/30 14:20:47;;;;;;;12.30;3.13;;;;;;;;;;5092691;28;20199;-51
2023/01/30 14:23:21;;;;;;;11.47;3.17;;;;;;;;;;5091109;28;20195;-52
2023/01/30 14:25:55;;;;;;;11.20;2.90;;;;;;;;;;5092829;28;20202;-51
2023/01/30 14:28:48;;;;;;;9.10;2.67;;;;;;;;;;5092995;28;20203;-52
2023/01/30 14:31:32;;;;;;;14.10;3.23;;;;;;;;;;5090617;28;20712;-52
2023/01/30 14:33:58;;;;;;;15.93;3.83;;;;;;;;;;5092601;28;20460;-52
2023/01/30 14:36:34;;;;;;;13.83;3.43;;;;;;;;;;5092461;28;20230;-52